Terminal Aerodrome Forecast
Issued by NWS

Home | Current Version | Previous Version | Text Only | Print | Product List | Glossary On
Versions: 1 2 3 4 5 6 7 8 9 10 11 12 13 14 15 16 17 18
000
FTUS46 KSEW 190500
TAFCLM
TAF
KCLM 190520Z 1906/2006 VRB04KT P6SM SCT250
     FM190800 VRB03KT P6SM BKN120 BKN200
     FM191600 VRB03KT P6SM -RA BKN050
     FM191800 28006KT P6SM -RA OVC050
     FM192100 30008KT P6SM -SHRA BKN050 OVC070
     FM200300 28007KT P6SM VCSH BKN050 BKN070=

USA.gov is the U.S. government's official web portal to all federal, state and local government web resources and services.